sensor_id;sensor_type;location;lat;lon;timestamp;temperature;humidity
20070;DHT22;10195;50.868;4.382;2024-02-04T00:01:51;11.20;99.90
20070;DHT22;10195;50.868;4.382;2024-02-04T00:04:16;11.20;99.90
20070;DHT22;10195;50.868;4.382;2024-02-04T00:06:42;11.20;99.90
20070;DHT22;10195;50.868;4.382;2024-02-04T00:09:08;11.20;99.90
20070;DHT22;10195;50.868;4.382;2024-02-04T00:11:33;11.20;99.90
20070;DHT22;10195;50.868;4.382;2024-02-04T00:14:00;11.20;99.90
20070;DHT22;10195;50.868;4.382;2024-02-04T00:16:26;11.30;99.90
20070;DHT22;10195;50.868;4.382;2024-02-04T00:18:51;11.20;99.90
20070;DHT22;10195;50.868;4.382;2024-02-04T00:21:17;11.20;99.90
20070;DHT22;10195;50.868;4.382;2024-02-04T00:23:43;11.20;99.90
20070;DHT22;10195;50.868;4.382;2024-02-04T00:26:09;11.00;99.90
20070;DHT22;10195;50.868;4.382;2024-02-04T00:28:37;11.00;99.90
20070;DHT22;10195;50.868;4.382;2024-02-04T00:31:03;11.10;99.90
20070;DHT22;10195;50.868;4.382;2024-02-04T00:33:31;11.10;99.90
20070;DHT22;10195;50.868;4.382;2024-02-04T00:35:57;11.20;99.90
20070;DHT22;10195;50.868;4.382;2024-02-04T00:38:22;11.10;99.90
20070;DHT22;10195;50.868;4.382;2024-02-04T00:40:48;11.10;99.90
20070;DHT22;10195;50.868;4.382;2024-02-04T00:43:14;11.10;99.90
20070;DHT22;10195;50.868;4.382;2024-02-04T00:45:39;11.10;99.90
20070;DHT22;10195;50.868;4.382;2024-02-04T00:48:05;11.10;99.90
20070;DHT22;10195;50.868;4.382;2024-02-04T00:50:31;11.10;99.90
20070;DHT22;10195;50.868;4.382;2024-02-04T00:52:56;11.10;99.90
20070;DHT22;10195;50.868;4.382;2024-02-04T00:55:22;11.10;99.90
20070;DHT22;10195;50.868;4.382;2024-02-04T00:57:49;11.10;99.90
20070;DHT22;10195;50.868;4.382;2024-02-04T01:00:14;11.10;99.90
20070;DHT22;10195;50.868;4.382;2024-02-04T01:02:40;11.10;99.90
20070;DHT22;10195;50.868;4.382;2024-02-04T01:05:07;11.10;99.90
20070;DHT22;10195;50.868;4.382;2024-02-04T01:07:32;11.10;99.90
20070;DHT22;10195;50.868;4.382;2024-02-04T01:09:58;11.20;99.90
20070;DHT22;10195;50.868;4.382;2024-02-04T01:12:24;11.20;99.90
20070;DHT22;10195;50.868;4.382;2024-02-04T01:14:49;11.20;99.90
20070;DHT22;10195;50.868;4.382;2024-02-04T01:17:15;11.20;99.90
20070;DHT22;10195;50.868;4.382;2024-02-04T01:19:41;11.20;99.90
20070;DHT22;10195;50.868;4.382;2024-02-04T01:22:06;11.20;99.90
20070;DHT22;10195;50.868;4.382;2024-02-04T01:24:32;11.20;99.90
20070;DHT22;10195;50.868;4.382;2024-02-04T01:26:58;11.20;99.90
20070;DHT22;10195;50.868;4.382;2024-02-04T01:29:23;11.20;99.90
20070;DHT22;10195;50.868;4.382;2024-02-04T01:31:49;11.30;99.90
20070;DHT22;10195;50.868;4.382;2024-02-04T01:34:15;11.20;99.90
20070;DHT22;10195;50.868;4.382;2024-02-04T01:36:43;11.20;99.90
20070;DHT22;10195;50.868;4.382;2024-02-04T01:39:08;11.20;99.90
20070;DHT22;10195;50.868;4.382;2024-02-04T01:41:35;11.20;99.90
20070;DHT22;10195;50.868;4.382;2024-02-04T01:44:01;11.20;99.90
20070;DHT22;10195;50.868;4.382;2024-02-04T01:46:27;11.20;99.90
20070;DHT22;10195;50.868;4.382;2024-02-04T01:48:53;11.20;99.90
20070;DHT22;10195;50.868;4.382;2024-02-04T01:51:20;11.20;99.90
20070;DHT22;10195;50.868;4.382;2024-02-04T01:53:46;11.10;99.90
20070;DHT22;10195;50.868;4.382;2024-02-04T01:56:13;11.10;99.90
20070;DHT22;10195;50.868;4.382;2024-02-04T01:58:39;11.20;99.90
20070;DHT22;10195;50.868;4.382;2024-02-04T02:01:05;11.30;99.90
20070;DHT22;10195;50.868;4.382;2024-02-04T02:03:34;11.20;99.90
20070;DHT22;10195;50.868;4.382;2024-02-04T02:06:01;11.20;99.90
20070;DHT22;10195;50.868;4.382;2024-02-04T02:08:27;11.20;99.90
20070;DHT22;10195;50.868;4.382;2024-02-04T02:11:00;11.20;99.90
20070;DHT22;10195;50.868;4.382;2024-02-04T02:13:30;11.30;99.90
20070;DHT22;10195;50.868;4.382;2024-02-04T02:16:04;11.30;99.90
20070;DHT22;10195;50.868;4.382;2024-02-04T02:18:46;11.20;99.90
20070;DHT22;10195;50.868;4.382;2024-02-04T02:26:49;11.20;99.90
20070;DHT22;10195;50.868;4.382;2024-02-04T02:29:15;11.20;99.90
20070;DHT22;10195;50.868;4.382;2024-02-04T02:31:41;11.30;99.90
20070;DHT22;10195;50.868;4.382;2024-02-04T02:34:08;11.30;99.90
20070;DHT22;10195;50.868;4.382;2024-02-04T02:36:40;11.30;99.90
20070;DHT22;10195;50.868;4.382;2024-02-04T02:39:13;11.30;99.90
20070;DHT22;10195;50.868;4.382;2024-02-04T02:41:42;11.40;99.90
20070;DHT22;10195;50.868;4.382;2024-02-04T02:44:09;11.40;99.90
20070;DHT22;10195;50.868;4.382;2024-02-04T02:46:36;11.40;99.90
20070;DHT22;10195;50.868;4.382;2024-02-04T02:49:03;11.40;99.90
20070;DHT22;10195;50.868;4.382;2024-02-04T02:51:29;11.40;99.90
20070;DHT22;10195;50.868;4.382;2024-02-04T02:53:55;11.40;99.90
20070;DHT22;10195;50.868;4.382;2024-02-04T02:56:20;11.40;99.90
20070;DHT22;10195;50.868;4.382;2024-02-04T02:58:46;11.40;99.90
20070;DHT22;10195;50.868;4.382;2024-02-04T03:01:12;11.40;99.90
20070;DHT22;10195;50.868;4.382;2024-02-04T03:03:38;11.40;99.90
20070;DHT22;10195;50.868;4.382;2024-02-04T03:06:03;11.40;99.90
20070;DHT22;10195;50.868;4.382;2024-02-04T03:08:30;11.40;99.90
20070;DHT22;10195;50.868;4.382;2024-02-04T03:10:55;11.40;99.90
20070;DHT22;10195;50.868;4.382;2024-02-04T03:13:24;11.40;99.90
20070;DHT22;10195;50.868;4.382;2024-02-04T03:15:49;11.40;99.90
20070;DHT22;10195;50.868;4.382;2024-02-04T03:18:15;11.40;99.90
20070;DHT22;10195;50.868;4.382;2024-02-04T03:20:41;11.40;99.90
20070;DHT22;10195;50.868;4.382;2024-02-04T03:23:06;11.40;99.90
20070;DHT22;10195;50.868;4.382;2024-02-04T03:25:32;11.30;99.90
20070;DHT22;10195;50.868;4.382;2024-02-04T03:27:58;11.40;99.90
20070;DHT22;10195;50.868;4.382;2024-02-04T03:30:23;11.40;99.90
20070;DHT22;10195;50.868;4.382;2024-02-04T03:32:49;11.40;99.90
20070;DHT22;10195;50.868;4.382;2024-02-04T03:35:14;11.40;99.90
20070;DHT22;10195;50.868;4.382;2024-02-04T03:37:40;11.40;99.90
20070;DHT22;10195;50.868;4.382;2024-02-04T03:40:06;11.30;99.90
20070;DHT22;10195;50.868;4.382;2024-02-04T03:42:32;11.30;99.90
20070;DHT22;10195;50.868;4.382;2024-02-04T03:44:57;11.30;99.90
20070;DHT22;10195;50.868;4.382;2024-02-04T03:47:23;11.40;99.90
20070;DHT22;10195;50.868;4.382;2024-02-04T03:49:49;11.40;99.90
20070;DHT22;10195;50.868;4.382;2024-02-04T03:52:14;11.40;99.90
20070;DHT22;10195;50.868;4.382;2024-02-04T03:54:40;11.40;99.90
20070;DHT22;10195;50.868;4.382;2024-02-04T03:57:06;11.40;99.90
20070;DHT22;10195;50.868;4.382;2024-02-04T03:59:31;11.40;99.90
20070;DHT22;10195;50.868;4.382;2024-02-04T04:01:57;11.40;99.90
20070;DHT22;10195;50.868;4.382;2024-02-04T04:04:23;11.40;99.90
20070;DHT22;10195;50.868;4.382;2024-02-04T04:06:49;11.40;99.90
20070;DHT22;10195;50.868;4.382;2024-02-04T04:09:15;11.30;99.90
20070;DHT22;10195;50.868;4.382;2024-02-04T04:11:40;11.30;99.90
20070;DHT22;10195;50.868;4.382;2024-02-04T04:14:06;11.30;99.90
20070;DHT22;10195;50.868;4.382;2024-02-04T04:16:32;11.30;99.90
20070;DHT22;10195;50.868;4.382;2024-02-04T04:18:57;11.30;99.90
20070;DHT22;10195;50.868;4.382;2024-02-04T04:21:26;11.30;99.90
20070;DHT22;10195;50.868;4.382;2024-02-04T04:23:51;11.30;99.90
20070;DHT22;10195;50.868;4.382;2024-02-04T04:26:17;11.30;99.90
20070;DHT22;10195;50.868;4.382;2024-02-04T04:28:43;11.30;99.90
20070;DHT22;10195;50.868;4.382;2024-02-04T04:31:08;11.30;99.90
20070;DHT22;10195;50.868;4.382;2024-02-04T04:33:36;11.40;99.90
20070;DHT22;10195;50.868;4.382;2024-02-04T04:36:02;11.40;99.90
20070;DHT22;10195;50.868;4.382;2024-02-04T04:38:27;11.40;99.90
20070;DHT22;10195;50.868;4.382;2024-02-04T04:40:53;11.30;99.90
20070;DHT22;10195;50.868;4.382;2024-02-04T04:43:19;11.40;99.90
20070;DHT22;10195;50.868;4.382;2024-02-04T04:45:44;11.40;99.90
20070;DHT22;10195;50.868;4.382;2024-02-04T04:48:10;11.40;99.90
20070;DHT22;10195;50.868;4.382;2024-02-04T04:50:36;11.50;99.90
20070;DHT22;10195;50.868;4.382;2024-02-04T04:53:02;11.50;99.90
20070;DHT22;10195;50.868;4.382;2024-02-04T04:55:27;11.50;99.90
20070;DHT22;10195;50.868;4.382;2024-02-04T04:57:53;11.60;99.90
20070;DHT22;10195;50.868;4.382;2024-02-04T05:00:19;11.50;99.90
20070;DHT22;10195;50.868;4.382;2024-02-04T05:02:45;11.60;99.90
20070;DHT22;10195;50.868;4.382;2024-02-04T05:05:13;11.50;99.90
20070;DHT22;10195;50.868;4.382;2024-02-04T05:07:40;11.50;99.90
20070;DHT22;10195;50.868;4.382;2024-02-04T05:10:06;11.50;99.90
20070;DHT22;10195;50.868;4.382;2024-02-04T05:12:33;11.40;99.90
20070;DHT22;10195;50.868;4.382;2024-02-04T05:14:59;11.40;99.90
20070;DHT22;10195;50.868;4.382;2024-02-04T05:17:26;11.40;99.90
20070;DHT22;10195;50.868;4.382;2024-02-04T05:19:55;11.40;99.90
20070;DHT22;10195;50.868;4.382;2024-02-04T05:22:20;11.40;99.90
20070;DHT22;10195;50.868;4.382;2024-02-04T05:24:46;11.40;99.90
20070;DHT22;10195;50.868;4.382;2024-02-04T05:27:12;11.30;99.90
20070;DHT22;10195;50.868;4.382;2024-02-04T05:29:37;11.30;99.90
20070;DHT22;10195;50.868;4.382;2024-02-04T05:32:03;11.40;99.90
20070;DHT22;10195;50.868;4.382;2024-02-04T05:34:29;11.30;99.90
20070;DHT22;10195;50.868;4.382;2024-02-04T05:36:56;11.30;99.90
20070;DHT22;10195;50.868;4.382;2024-02-04T05:39:22;11.30;99.90
20070;DHT22;10195;50.868;4.382;2024-02-04T05:41:49;11.30;99.90
20070;DHT22;10195;50.868;4.382;2024-02-04T05:44:14;11.30;99.90
20070;DHT22;10195;50.868;4.382;2024-02-04T05:46:40;11.30;99.90
20070;DHT22;10195;50.868;4.382;2024-02-04T05:49:06;11.30;99.90
20070;DHT22;10195;50.868;4.382;2024-02-04T05:51:32;11.30;99.90
20070;DHT22;10195;50.868;4.382;2024-02-04T05:53:58;11.40;99.90
20070;DHT22;10195;50.868;4.382;2024-02-04T05:56:24;11.30;99.90
20070;DHT22;10195;50.868;4.382;2024-02-04T05:58:50;11.30;99.90
20070;DHT22;10195;50.868;4.382;2024-02-04T06:01:16;11.30;99.90
20070;DHT22;10195;50.868;4.382;2024-02-04T06:03:42;11.30;99.90
20070;DHT22;10195;50.868;4.382;2024-02-04T06:06:13;11.30;99.90
20070;DHT22;10195;50.868;4.382;2024-02-04T06:08:39;11.30;99.90
20070;DHT22;10195;50.868;4.382;2024-02-04T06:11:05;11.30;99.90
20070;DHT22;10195;50.868;4.382;2024-02-04T06:13:31;11.30;99.90
20070;DHT22;10195;50.868;4.382;2024-02-04T06:15:56;11.30;99.90
20070;DHT22;10195;50.868;4.382;2024-02-04T06:18:22;11.40;99.90
20070;DHT22;10195;50.868;4.382;2024-02-04T06:20:47;11.40;99.90
20070;DHT22;10195;50.868;4.382;2024-02-04T06:23:13;11.40;99.90
20070;DHT22;10195;50.868;4.382;2024-02-04T06:25:39;11.30;99.90
20070;DHT22;10195;50.868;4.382;2024-02-04T06:28:04;11.40;99.90
20070;DHT22;10195;50.868;4.382;2024-02-04T06:30:31;11.40;99.90
20070;DHT22;10195;50.868;4.382;2024-02-04T06:32:56;11.40;99.90
20070;DHT22;10195;50.868;4.382;2024-02-04T06:35:22;11.30;99.90
20070;DHT22;10195;50.868;4.382;2024-02-04T06:37:48;11.20;99.90
20070;DHT22;10195;50.868;4.382;2024-02-04T06:40:13;11.20;99.90
20070;DHT22;10195;50.868;4.382;2024-02-04T06:42:39;11.30;99.90
20070;DHT22;10195;50.868;4.382;2024-02-04T06:45:05;11.30;99.90
20070;DHT22;10195;50.868;4.382;2024-02-04T06:47:31;11.30;99.90
20070;DHT22;10195;50.868;4.382;2024-02-04T06:49:57;11.20;99.90
20070;DHT22;10195;50.868;4.382;2024-02-04T06:52:22;11.30;99.90
20070;DHT22;10195;50.868;4.382;2024-02-04T06:54:48;11.30;99.90
20070;DHT22;10195;50.868;4.382;2024-02-04T06:57:13;11.20;99.90
20070;DHT22;10195;50.868;4.382;2024-02-04T06:59:39;11.30;99.90
20070;DHT22;10195;50.868;4.382;2024-02-04T07:02:05;11.30;99.90
20070;DHT22;10195;50.868;4.382;2024-02-04T07:04:31;11.30;99.90
20070;DHT22;10195;50.868;4.382;2024-02-04T07:06:57;11.30;99.90
20070;DHT22;10195;50.868;4.382;2024-02-04T07:09:22;11.30;99.90
20070;DHT22;10195;50.868;4.382;2024-02-04T07:11:48;11.30;99.90
20070;DHT22;10195;50.868;4.382;2024-02-04T07:14:13;11.30;99.90
20070;DHT22;10195;50.868;4.382;2024-02-04T07:16:39;11.20;99.90
20070;DHT22;10195;50.868;4.382;2024-02-04T07:19:05;11.20;99.90
20070;DHT22;10195;50.868;4.382;2024-02-04T07:21:30;11.20;99.90
20070;DHT22;10195;50.868;4.382;2024-02-04T07:23:56;11.30;99.90
20070;DHT22;10195;50.868;4.382;2024-02-04T07:26:22;11.30;99.90
20070;DHT22;10195;50.868;4.382;2024-02-04T07:28:48;11.20;99.90
20070;DHT22;10195;50.868;4.382;2024-02-04T07:31:13;11.30;99.90
20070;DHT22;10195;50.868;4.382;2024-02-04T07:33:39;11.20;99.90
20070;DHT22;10195;50.868;4.382;2024-02-04T07:36:05;11.20;99.90
20070;DHT22;10195;50.868;4.382;2024-02-04T07:38:31;11.30;99.90
20070;DHT22;10195;50.868;4.382;2024-02-04T07:40:56;11.30;99.90
20070;DHT22;10195;50.868;4.382;2024-02-04T07:43:24;11.40;99.90
20070;DHT22;10195;50.868;4.382;2024-02-04T07:45:50;11.30;99.90
20070;DHT22;10195;50.868;4.382;2024-02-04T07:48:16;11.30;99.90
20070;DHT22;10195;50.868;4.382;2024-02-04T07:50:42;11.30;99.90
20070;DHT22;10195;50.868;4.382;2024-02-04T07:53:08;11.40;99.90
20070;DHT22;10195;50.868;4.382;2024-02-04T07:55:34;11.40;99.90
20070;DHT22;10195;50.868;4.382;2024-02-04T07:57:59;11.40;99.90
20070;DHT22;10195;50.868;4.382;2024-02-04T08:00:25;11.40;99.90
20070;DHT22;10195;50.868;4.382;2024-02-04T08:02:51;11.40;99.90
20070;DHT22;10195;50.868;4.382;2024-02-04T08:05:16;11.40;99.90
20070;DHT22;10195;50.868;4.382;2024-02-04T08:07:42;11.40;99.90
20070;DHT22;10195;50.868;4.382;2024-02-04T08:10:08;11.40;99.90
20070;DHT22;10195;50.868;4.382;2024-02-04T08:12:34;11.40;99.90
20070;DHT22;10195;50.868;4.382;2024-02-04T08:15:00;11.40;99.90
20070;DHT22;10195;50.868;4.382;2024-02-04T08:17:26;11.40;99.90
20070;DHT22;10195;50.868;4.382;2024-02-04T08:19:54;11.50;99.90
20070;DHT22;10195;50.868;4.382;2024-02-04T08:22:19;11.60;99.90
20070;DHT22;10195;50.868;4.382;2024-02-04T08:24:45;11.60;99.90
20070;DHT22;10195;50.868;4.382;2024-02-04T08:27:10;11.60;99.90
20070;DHT22;10195;50.868;4.382;2024-02-04T08:29:36;11.60;99.90
20070;DHT22;10195;50.868;4.382;2024-02-04T08:32:02;11.60;99.90
20070;DHT22;10195;50.868;4.382;2024-02-04T08:34:28;11.70;99.90
20070;DHT22;10195;50.868;4.382;2024-02-04T08:36:53;11.70;99.90
20070;DHT22;10195;50.868;4.382;2024-02-04T08:39:19;11.60;99.90
20070;DHT22;10195;50.868;4.382;2024-02-04T08:41:44;11.70;99.90
20070;DHT22;10195;50.868;4.382;2024-02-04T08:44:10;11.60;99.90
20070;DHT22;10195;50.868;4.382;2024-02-04T08:46:36;11.60;99.90
20070;DHT22;10195;50.868;4.382;2024-02-04T08:49:01;11.60;99.90
20070;DHT22;10195;50.868;4.382;2024-02-04T08:51:27;11.60;99.90
20070;DHT22;10195;50.868;4.382;2024-02-04T08:53:53;11.70;99.90
20070;DHT22;10195;50.868;4.382;2024-02-04T08:56:18;11.60;99.90
20070;DHT22;10195;50.868;4.382;2024-02-04T08:58:45;11.60;99.90
20070;DHT22;10195;50.868;4.382;2024-02-04T09:01:11;11.70;99.90
20070;DHT22;10195;50.868;4.382;2024-02-04T09:03:37;11.60;99.90
20070;DHT22;10195;50.868;4.382;2024-02-04T09:06:02;11.60;99.90
20070;DHT22;10195;50.868;4.382;2024-02-04T09:08:28;11.70;99.90
20070;DHT22;10195;50.868;4.382;2024-02-04T09:10:54;11.80;99.90
20070;DHT22;10195;50.868;4.382;2024-02-04T09:13:20;11.80;99.90
20070;DHT22;10195;50.868;4.382;2024-02-04T09:15:45;11.80;99.90
20070;DHT22;10195;50.868;4.382;2024-02-04T09:18:11;11.70;99.90
20070;DHT22;10195;50.868;4.382;2024-02-04T09:20:36;11.70;99.90
20070;DHT22;10195;50.868;4.382;2024-02-04T09:23:02;11.80;99.90
20070;DHT22;10195;50.868;4.382;2024-02-04T09:25:29;11.90;99.90
20070;DHT22;10195;50.868;4.382;2024-02-04T09:27:54;11.90;99.90
20070;DHT22;10195;50.868;4.382;2024-02-04T09:30:20;11.90;99.90
20070;DHT22;10195;50.868;4.382;2024-02-04T09:32:46;11.90;99.90
20070;DHT22;10195;50.868;4.382;2024-02-04T09:35:12;11.90;99.90
20070;DHT22;10195;50.868;4.382;2024-02-04T09:37:38;12.00;99.90
20070;DHT22;10195;50.868;4.382;2024-02-04T09:40:04;11.90;99.90
20070;DHT22;10195;50.868;4.382;2024-02-04T09:42:30;11.80;99.90
20070;DHT22;10195;50.868;4.382;2024-02-04T09:44:57;11.80;99.90
20070;DHT22;10195;50.868;4.382;2024-02-04T09:47:22;11.80;99.90
20070;DHT22;10195;50.868;4.382;2024-02-04T09:49:48;11.80;99.90
20070;DHT22;10195;50.868;4.382;2024-02-04T09:52:18;11.90;99.90
20070;DHT22;10195;50.868;4.382;2024-02-04T09:54:54;11.90;99.90
20070;DHT22;10195;50.868;4.382;2024-02-04T09:57:21;11.90;99.90
20070;DHT22;10195;50.868;4.382;2024-02-04T09:59:47;11.80;99.90
20070;DHT22;10195;50.868;4.382;2024-02-04T10:02:13;11.70;99.90
20070;DHT22;10195;50.868;4.382;2024-02-04T10:04:39;11.80;99.90
20070;DHT22;10195;50.868;4.382;2024-02-04T10:07:04;11.80;99.90
20070;DHT22;10195;50.868;4.382;2024-02-04T10:09:30;11.80;99.90
20070;DHT22;10195;50.868;4.382;2024-02-04T10:11:57;11.90;99.90
20070;DHT22;10195;50.868;4.382;2024-02-04T10:14:22;11.80;99.90
20070;DHT22;10195;50.868;4.382;2024-02-04T10:16:49;11.80;99.90
20070;DHT22;10195;50.868;4.382;2024-02-04T10:19:15;11.90;99.90
20070;DHT22;10195;50.868;4.382;2024-02-04T10:21:41;11.90;99.90
20070;DHT22;10195;50.868;4.382;2024-02-04T10:24:06;12.00;99.90
20070;DHT22;10195;50.868;4.382;2024-02-04T10:26:33;12.20;99.90
20070;DHT22;10195;50.868;4.382;2024-02-04T10:29:02;12.20;99.90
20070;DHT22;10195;50.868;4.382;2024-02-04T10:31:27;12.20;99.90
20070;DHT22;10195;50.868;4.382;2024-02-04T10:33:55;12.10;99.90
20070;DHT22;10195;50.868;4.382;2024-02-04T10:36:20;12.20;99.90
20070;DHT22;10195;50.868;4.382;2024-02-04T10:38:46;12.30;99.90
20070;DHT22;10195;50.868;4.382;2024-02-04T10:41:15;12.30;99.90
20070;DHT22;10195;50.868;4.382;2024-02-04T10:43:43;12.50;99.90
20070;DHT22;10195;50.868;4.382;2024-02-04T10:46:19;12.30;99.90
20070;DHT22;10195;50.868;4.382;2024-02-04T10:49:03;12.40;99.90
20070;DHT22;10195;50.868;4.382;2024-02-04T10:51:31;12.40;99.90
20070;DHT22;10195;50.868;4.382;2024-02-04T10:53:58;12.40;99.90
20070;DHT22;10195;50.868;4.382;2024-02-04T10:56:45;12.50;99.90
20070;DHT22;10195;50.868;4.382;2024-02-04T10:59:13;12.40;99.90
20070;DHT22;10195;50.868;4.382;2024-02-04T11:01:43;12.30;99.90
20070;DHT22;10195;50.868;4.382;2024-02-04T11:04:10;12.20;99.90
20070;DHT22;10195;50.868;4.382;2024-02-04T11:06:38;12.10;99.90
20070;DHT22;10195;50.868;4.382;2024-02-04T11:09:07;12.10;99.90
20070;DHT22;10195;50.868;4.382;2024-02-04T11:11:36;12.20;99.90
20070;DHT22;10195;50.868;4.382;2024-02-04T11:14:04;12.30;99.90
20070;DHT22;10195;50.868;4.382;2024-02-04T11:19:36;12.30;99.90
20070;DHT22;10195;50.868;4.382;2024-02-04T11:27:36;12.30;99.90
20070;DHT22;10195;50.868;4.382;2024-02-04T11:30:02;12.40;99.90
20070;DHT22;10195;50.868;4.382;2024-02-04T11:32:29;12.50;99.90
20070;DHT22;10195;50.868;4.382;2024-02-04T11:34:58;12.40;99.90
20070;DHT22;10195;50.868;4.382;2024-02-04T11:37:26;12.30;99.90
20070;DHT22;10195;50.868;4.382;2024-02-04T11:39:54;12.30;99.90
20070;DHT22;10195;50.868;4.382;2024-02-04T11:42:23;12.20;99.90
20070;DHT22;10195;50.868;4.382;2024-02-04T11:44:49;12.30;99.90
20070;DHT22;10195;50.868;4.382;2024-02-04T11:47:27;12.30;99.90
20070;DHT22;10195;50.868;4.382;2024-02-04T11:49:57;12.20;99.90
20070;DHT22;10195;50.868;4.382;2024-02-04T11:52:23;12.20;99.90
20070;DHT22;10195;50.868;4.382;2024-02-04T11:54:52;12.20;99.90
20070;DHT22;10195;50.868;4.382;2024-02-04T11:57:18;12.30;99.90
20070;DHT22;10195;50.868;4.382;2024-02-04T11:59:44;12.30;99.90
20070;DHT22;10195;50.868;4.382;2024-02-04T12:02:10;12.20;99.90
20070;DHT22;10195;50.868;4.382;2024-02-04T12:04:37;12.30;99.90
20070;DHT22;10195;50.868;4.382;2024-02-04T12:07:05;12.30;99.90
20070;DHT22;10195;50.868;4.382;2024-02-04T12:09:31;12.30;99.90
20070;DHT22;10195;50.868;4.382;2024-02-04T12:11:57;12.30;99.90
20070;DHT22;10195;50.868;4.382;2024-02-04T12:14:23;12.40;99.90
20070;DHT22;10195;50.868;4.382;2024-02-04T12:16:49;12.40;99.90
20070;DHT22;10195;50.868;4.382;2024-02-04T12:19:14;12.20;99.90
20070;DHT22;10195;50.868;4.382;2024-02-04T12:21:41;12.20;99.90
20070;DHT22;10195;50.868;4.382;2024-02-04T12:24:07;12.10;99.90
20070;DHT22;10195;50.868;4.382;2024-02-04T12:26:33;12.00;99.90
20070;DHT22;10195;50.868;4.382;2024-02-04T12:28:59;12.20;99.90
20070;DHT22;10195;50.868;4.382;2024-02-04T12:31:26;12.20;99.90
20070;DHT22;10195;50.868;4.382;2024-02-04T12:33:58;12.10;99.90
20070;DHT22;10195;50.868;4.382;2024-02-04T12:36:32;12.20;99.90
20070;DHT22;10195;50.868;4.382;2024-02-04T12:38:59;12.30;99.90
20070;DHT22;10195;50.868;4.382;2024-02-04T12:41:29;12.30;99.90
20070;DHT22;10195;50.868;4.382;2024-02-04T12:43:59;12.50;99.90
20070;DHT22;10195;50.868;4.382;2024-02-04T12:46:30;12.50;99.90
20070;DHT22;10195;50.868;4.382;2024-02-04T12:48:57;12.30;99.90
20070;DHT22;10195;50.868;4.382;2024-02-04T12:51:27;12.40;99.90
20070;DHT22;10195;50.868;4.382;2024-02-04T12:54:09;12.50;99.90
20070;DHT22;10195;50.868;4.382;2024-02-04T12:56:47;12.40;99.90
20070;DHT22;10195;50.868;4.382;2024-02-04T12:59:28;12.50;99.90
20070;DHT22;10195;50.868;4.382;2024-02-04T13:02:02;12.60;99.90
20070;DHT22;10195;50.868;4.382;2024-02-04T13:04:35;12.60;99.90
20070;DHT22;10195;50.868;4.382;2024-02-04T13:07:01;12.70;99.90
20070;DHT22;10195;50.868;4.382;2024-02-04T13:09:26;12.70;99.90
20070;DHT22;10195;50.868;4.382;2024-02-04T13:11:52;12.60;99.90
20070;DHT22;10195;50.868;4.382;2024-02-04T13:14:17;12.50;99.90
20070;DHT22;10195;50.868;4.382;2024-02-04T13:16:43;12.60;99.90
20070;DHT22;10195;50.868;4.382;2024-02-04T13:19:09;12.60;99.90
20070;DHT22;10195;50.868;4.382;2024-02-04T13:21:34;12.60;99.90
20070;DHT22;10195;50.868;4.382;2024-02-04T13:24:00;12.60;99.90
20070;DHT22;10195;50.868;4.382;2024-02-04T13:26:26;12.60;99.90
20070;DHT22;10195;50.868;4.382;2024-02-04T13:28:52;12.50;99.90
20070;DHT22;10195;50.868;4.382;2024-02-04T13:31:17;12.40;99.90
20070;DHT22;10195;50.868;4.382;2024-02-04T13:33:43;12.50;99.90
20070;DHT22;10195;50.868;4.382;2024-02-04T13:36:09;12.40;99.90
20070;DHT22;10195;50.868;4.382;2024-02-04T13:38:35;12.30;99.90
20070;DHT22;10195;50.868;4.382;2024-02-04T13:41:02;12.30;99.90
20070;DHT22;10195;50.868;4.382;2024-02-04T13:43:30;12.20;99.90
20070;DHT22;10195;50.868;4.382;2024-02-04T13:46:00;12.20;99.90
20070;DHT22;10195;50.868;4.382;2024-02-04T13:48:26;12.10;99.90
20070;DHT22;10195;50.868;4.382;2024-02-04T13:50:51;12.10;99.90
20070;DHT22;10195;50.868;4.382;2024-02-04T13:53:19;12.20;99.90
20070;DHT22;10195;50.868;4.382;2024-02-04T13:55:45;12.10;99.90
20070;DHT22;10195;50.868;4.382;2024-02-04T13:58:11;12.10;99.90
20070;DHT22;10195;50.868;4.382;2024-02-04T14:00:37;12.20;99.90
20070;DHT22;10195;50.868;4.382;2024-02-04T14:03:03;12.10;99.90
20070;DHT22;10195;50.868;4.382;2024-02-04T14:05:28;12.10;99.90
20070;DHT22;10195;50.868;4.382;2024-02-04T14:07:54;12.00;99.90
20070;DHT22;10195;50.868;4.382;2024-02-04T14:10:20;11.90;99.90
20070;DHT22;10195;50.868;4.382;2024-02-04T14:12:46;11.80;99.90
20070;DHT22;10195;50.868;4.382;2024-02-04T14:15:12;11.90;99.90
20070;DHT22;10195;50.868;4.382;2024-02-04T14:17:38;11.90;99.90
20070;DHT22;10195;50.868;4.382;2024-02-04T14:20:05;11.90;99.90
20070;DHT22;10195;50.868;4.382;2024-02-04T14:22:31;11.90;99.90
20070;DHT22;10195;50.868;4.382;2024-02-04T14:24:57;12.00;99.90
20070;DHT22;10195;50.868;4.382;2024-02-04T14:27:23;11.90;99.90
20070;DHT22;10195;50.868;4.382;2024-02-04T14:29:49;11.90;99.90
20070;DHT22;10195;50.868;4.382;2024-02-04T14:32:15;11.90;99.90
20070;DHT22;10195;50.868;4.382;2024-02-04T14:34:40;11.80;99.90
20070;DHT22;10195;50.868;4.382;2024-02-04T14:37:06;11.80;99.90
20070;DHT22;10195;50.868;4.382;2024-02-04T14:39:32;11.80;99.90
20070;DHT22;10195;50.868;4.382;2024-02-04T14:41:58;11.90;99.90
20070;DHT22;10195;50.868;4.382;2024-02-04T14:44:23;11.90;99.90
20070;DHT22;10195;50.868;4.382;2024-02-04T14:46:49;12.00;99.90
20070;DHT22;10195;50.868;4.382;2024-02-04T14:49:15;11.90;99.90
20070;DHT22;10195;50.868;4.382;2024-02-04T14:51:41;12.00;99.90
20070;DHT22;10195;50.868;4.382;2024-02-04T14:54:09;12.00;99.90
20070;DHT22;10195;50.868;4.382;2024-02-04T14:56:42;12.00;99.90
20070;DHT22;10195;50.868;4.382;2024-02-04T14:59:11;12.10;99.90
20070;DHT22;10195;50.868;4.382;2024-02-04T15:01:37;12.10;99.90
20070;DHT22;10195;50.868;4.382;2024-02-04T15:04:03;12.20;99.90
20070;DHT22;10195;50.868;4.382;2024-02-04T15:06:30;12.30;99.90
20070;DHT22;10195;50.868;4.382;2024-02-04T15:08:56;12.40;99.90
20070;DHT22;10195;50.868;4.382;2024-02-04T15:11:27;12.20;99.90
20070;DHT22;10195;50.868;4.382;2024-02-04T15:13:55;12.20;99.90
20070;DHT22;10195;50.868;4.382;2024-02-04T15:16:21;12.20;99.90
20070;DHT22;10195;50.868;4.382;2024-02-04T15:18:47;12.10;99.90
20070;DHT22;10195;50.868;4.382;2024-02-04T15:21:13;12.20;99.90
20070;DHT22;10195;50.868;4.382;2024-02-04T15:23:39;12.20;99.90
20070;DHT22;10195;50.868;4.382;2024-02-04T15:26:07;12.20;99.90
20070;DHT22;10195;50.868;4.382;2024-02-04T15:28:36;12.10;99.90
20070;DHT22;10195;50.868;4.382;2024-02-04T15:31:02;12.10;99.90
20070;DHT22;10195;50.868;4.382;2024-02-04T15:33:28;12.10;99.90
20070;DHT22;10195;50.868;4.382;2024-02-04T15:35:54;12.20;99.90
20070;DHT22;10195;50.868;4.382;2024-02-04T15:38:20;12.30;99.90
20070;DHT22;10195;50.868;4.382;2024-02-04T15:40:46;12.20;99.90